N59BS KBED-KTEB
Flight info
| Callsign | N59BS |
|---|---|
| Flight time | 0h 49m |
| Altitude | 16000 |
| Route | REVSS BAF MOBBS T295 SAGES V489 COATE |
| Aircraft | C525/L-SDFGRWY/S |
Departure
| Time | 2026-04-28 17:20 |
|---|---|
| Airport | Laurence G Hanscom Field (KBED) |
Arrival
| Time | 2026-04-28 18:09 |
|---|---|
| Airport | Teterboro Airport (KTEB) |
| Time | Latitude | Longitude | Altitude | Speed | Heading |
|---|---|---|---|---|---|
| 2026-04-28 16:59 | 42.46172 | -71.29371 | 128 ft | 0 kts | 309° |
| 2026-04-28 17:16 | 42.46172 | -71.29372 | 128 ft | 0 kts | 309° |
| 2026-04-28 17:16 | 42.46180 | -71.29385 | 128 ft | 4 kts | 311° |
| 2026-04-28 17:16 | 42.46210 | -71.29422 | 128 ft | 7 kts | 314° |
| 2026-04-28 17:17 | 42.46245 | -71.29481 | 128 ft | 8 kts | 308° |
| 2026-04-28 17:17 | 42.46279 | -71.29541 | 128 ft | 7 kts | 309° |
| 2026-04-28 17:17 | 42.46307 | -71.29590 | 128 ft | 5 kts | 306° |
| 2026-04-28 17:17 | 42.46309 | -71.29594 | 128 ft | 0 kts | 306° |
| 2026-04-28 17:18 | 42.46312 | -71.29600 | 128 ft | 2 kts | 305° |
| 2026-04-28 17:18 | 42.46337 | -71.29636 | 128 ft | 7 kts | 326° |
| 2026-04-28 17:18 | 42.46398 | -71.29631 | 128 ft | 0 kts | 40° |
| 2026-04-28 17:19 | 42.46401 | -71.29628 | 128 ft | 2 kts | 41° |
| 2026-04-28 17:19 | 42.46479 | -71.29546 | 126 ft | 43 kts | 39° |
| 2026-04-28 17:19 | 42.46898 | -71.29115 | 125 ft | 104 kts | 35° |
| 2026-04-28 17:19 | 42.47537 | -71.28516 | 503 ft | 110 kts | 36° |
| 2026-04-28 17:20 | 42.48258 | -71.27863 | 738 ft | 139 kts | 36° |
| 2026-04-28 17:20 | 42.48815 | -71.27356 | 1006 ft | 153 kts | 36° |
| 2026-04-28 17:20 | 42.50115 | -71.26176 | 1495 ft | 185 kts | 36° |
| 2026-04-28 17:20 | 42.51256 | -71.25136 | 1843 ft | 207 kts | 36° |
| 2026-04-28 17:21 | 42.52528 | -71.23975 | 2005 ft | 235 kts | 36° |
| 2026-04-28 17:21 | 42.53882 | -71.22736 | 1996 ft | 236 kts | 36° |
| 2026-04-28 17:21 | 42.55258 | -71.21479 | 1988 ft | 233 kts | 36° |
| 2026-04-28 17:22 | 42.58072 | -71.19470 | 1978 ft | 234 kts | 6° |
| 2026-04-28 17:22 | 42.59632 | -71.20042 | 1994 ft | 240 kts | 332° |
| 2026-04-28 17:22 | 42.60693 | -71.21778 | 2143 ft | 241 kts | 294° |
| 2026-04-28 17:23 | 42.60590 | -71.26257 | 2332 ft | 238 kts | 258° |
| 2026-04-28 17:23 | 42.60215 | -71.28441 | 2394 ft | 237 kts | 257° |
| 2026-04-28 17:23 | 42.59811 | -71.30615 | 2428 ft | 238 kts | 256° |
| 2026-04-28 17:23 | 42.59401 | -71.32809 | 2483 ft | 238 kts | 256° |
| 2026-04-28 17:24 | 42.59007 | -71.34952 | 2721 ft | 228 kts | 256° |
| 2026-04-28 17:24 | 42.58491 | -71.36858 | 3195 ft | 206 kts | 241° |
| 2026-04-28 17:24 | 42.57800 | -71.38475 | 3684 ft | 186 kts | 237° |
| 2026-04-28 17:24 | 42.57158 | -71.39873 | 4129 ft | 166 kts | 237° |
| 2026-04-28 17:25 | 42.56538 | -71.41061 | 4555 ft | 143 kts | 230° |
| 2026-04-28 17:25 | 42.55326 | -71.43263 | 5250 ft | 166 kts | 231° |
| 2026-04-28 17:25 | 42.54517 | -71.44720 | 5360 ft | 218 kts | 232° |
| 2026-04-28 17:26 | 42.53536 | -71.46499 | 5727 ft | 250 kts | 232° |
| 2026-04-28 17:26 | 42.52493 | -71.48401 | 6658 ft | 253 kts | 233° |
| 2026-04-28 17:26 | 42.51456 | -71.50296 | 7581 ft | 255 kts | 232° |
| 2026-04-28 17:26 | 42.50393 | -71.52236 | 8459 ft | 257 kts | 233° |
| 2026-04-28 17:27 | 42.49316 | -71.54200 | 9276 ft | 261 kts | 232° |
| 2026-04-28 17:27 | 42.48222 | -71.56190 | 10072 ft | 264 kts | 232° |
| 2026-04-28 17:27 | 42.47118 | -71.58200 | 10837 ft | 268 kts | 233° |
| 2026-04-28 17:27 | 42.45992 | -71.60249 | 11560 ft | 272 kts | 233° |
| 2026-04-28 17:28 | 42.44880 | -71.62268 | 12303 ft | 270 kts | 234° |
| 2026-04-28 17:28 | 42.42583 | -71.66437 | 13343 ft | 279 kts | 233° |
| 2026-04-28 17:28 | 42.41423 | -71.68539 | 13898 ft | 281 kts | 233° |
| 2026-04-28 17:29 | 42.40261 | -71.70646 | 14491 ft | 280 kts | 234° |
| 2026-04-28 17:29 | 42.39079 | -71.72786 | 14875 ft | 287 kts | 234° |
| 2026-04-28 17:29 | 42.37869 | -71.74974 | 15375 ft | 288 kts | 234° |
| 2026-04-28 17:30 | 42.35400 | -71.79435 | 15942 ft | 303 kts | 234° |
| 2026-04-28 17:30 | 42.33761 | -71.84840 | 15967 ft | 321 kts | 256° |
| 2026-04-28 17:30 | 42.33164 | -71.87777 | 15956 ft | 329 kts | 257° |
| 2026-04-28 17:31 | 42.32567 | -71.90785 | 15957 ft | 335 kts | 257° |
| 2026-04-28 17:31 | 42.31334 | -71.97016 | 15949 ft | 345 kts | 256° |
| 2026-04-28 17:32 | 42.30090 | -72.03263 | 15943 ft | 345 kts | 256° |
| 2026-04-28 17:32 | 42.29459 | -72.06420 | 15931 ft | 343 kts | 257° |
| 2026-04-28 17:32 | 42.28836 | -72.09526 | 15935 ft | 342 kts | 257° |
| 2026-04-28 17:32 | 42.28204 | -72.12629 | 15930 ft | 341 kts | 255° |
| 2026-04-28 17:33 | 42.27253 | -72.15564 | 15951 ft | 341 kts | 244° |
| 2026-04-28 17:33 | 42.26186 | -72.18463 | 15936 ft | 341 kts | 244° |
| 2026-04-28 17:33 | 42.25106 | -72.21320 | 15933 ft | 341 kts | 244° |
| 2026-04-28 17:33 | 42.24377 | -72.23241 | 15913 ft | 341 kts | 244° |
| 2026-04-28 17:34 | 42.22929 | -72.27053 | 15930 ft | 340 kts | 244° |
| 2026-04-28 17:34 | 42.21847 | -72.29900 | 15929 ft | 340 kts | 244° |
| 2026-04-28 17:34 | 42.20774 | -72.32725 | 15929 ft | 340 kts | 244° |
| 2026-04-28 17:34 | 42.19695 | -72.35563 | 15932 ft | 339 kts | 244° |
| 2026-04-28 17:35 | 42.18610 | -72.38415 | 15935 ft | 339 kts | 244° |
| 2026-04-28 17:35 | 42.17518 | -72.41286 | 15934 ft | 339 kts | 244° |
| 2026-04-28 17:35 | 42.16441 | -72.44113 | 15937 ft | 339 kts | 244° |
| 2026-04-28 17:35 | 42.15350 | -72.46973 | 15940 ft | 339 kts | 244° |
| 2026-04-28 17:36 | 42.14277 | -72.49786 | 15933 ft | 339 kts | 244° |
| 2026-04-28 17:36 | 42.13187 | -72.52641 | 15932 ft | 339 kts | 244° |
| 2026-04-28 17:36 | 42.12103 | -72.55483 | 15936 ft | 339 kts | 244° |
| 2026-04-28 17:36 | 42.11014 | -72.58326 | 15933 ft | 339 kts | 244° |
| 2026-04-28 17:37 | 42.09934 | -72.61151 | 15937 ft | 338 kts | 244° |
| 2026-04-28 17:37 | 42.08852 | -72.63972 | 15936 ft | 338 kts | 244° |
| 2026-04-28 17:37 | 42.07763 | -72.66811 | 15936 ft | 338 kts | 243° |
| 2026-04-28 17:37 | 42.06673 | -72.69653 | 15941 ft | 337 kts | 243° |
| 2026-04-28 17:38 | 42.05588 | -72.72477 | 15939 ft | 337 kts | 243° |
| 2026-04-28 17:38 | 42.04510 | -72.75277 | 15934 ft | 337 kts | 243° |
| 2026-04-28 17:38 | 42.03431 | -72.78080 | 15937 ft | 336 kts | 242° |
| 2026-04-28 17:38 | 42.02345 | -72.80897 | 15942 ft | 336 kts | 242° |
| 2026-04-28 17:39 | 42.01261 | -72.83707 | 15941 ft | 336 kts | 242° |
| 2026-04-28 17:39 | 42.00173 | -72.86526 | 15943 ft | 336 kts | 243° |
| 2026-04-28 17:39 | 41.98008 | -72.92125 | 15948 ft | 336 kts | 243° |
| 2026-04-28 17:40 | 41.96918 | -72.94939 | 15947 ft | 336 kts | 243° |
| 2026-04-28 17:40 | 41.95841 | -72.97717 | 15954 ft | 336 kts | 243° |
| 2026-04-28 17:40 | 41.94764 | -73.00494 | 15968 ft | 335 kts | 243° |
| 2026-04-28 17:40 | 41.93678 | -73.03290 | 15946 ft | 336 kts | 242° |
| 2026-04-28 17:41 | 41.92594 | -73.06079 | 15965 ft | 336 kts | 242° |
| 2026-04-28 17:41 | 41.91508 | -73.08868 | 15956 ft | 335 kts | 242° |
| 2026-04-28 17:41 | 41.90426 | -73.11647 | 15936 ft | 335 kts | 242° |
| 2026-04-28 17:41 | 41.89334 | -73.14448 | 15948 ft | 334 kts | 242° |
| 2026-04-28 17:42 | 41.88244 | -73.17242 | 15952 ft | 333 kts | 242° |
| 2026-04-28 17:42 | 41.87178 | -73.19970 | 15933 ft | 333 kts | 242° |
| 2026-04-28 17:42 | 41.86084 | -73.22766 | 15928 ft | 333 kts | 242° |
| 2026-04-28 17:42 | 41.84998 | -73.25542 | 15925 ft | 333 kts | 242° |
| 2026-04-28 17:43 | 41.83929 | -73.28271 | 15925 ft | 333 kts | 242° |
| 2026-04-28 17:43 | 41.82849 | -73.31024 | 15934 ft | 333 kts | 242° |
| 2026-04-28 17:43 | 41.81757 | -73.33808 | 15925 ft | 333 kts | 242° |
| 2026-04-28 17:43 | 41.80682 | -73.36548 | 15926 ft | 332 kts | 242° |
| 2026-04-28 17:44 | 41.79593 | -73.39318 | 15923 ft | 332 kts | 242° |
| 2026-04-28 17:44 | 41.78513 | -73.42056 | 15925 ft | 331 kts | 242° |
| 2026-04-28 17:44 | 41.77446 | -73.44768 | 15922 ft | 331 kts | 242° |
| 2026-04-28 17:44 | 41.76366 | -73.47504 | 15923 ft | 330 kts | 242° |
| 2026-04-28 17:45 | 41.75285 | -73.50246 | 15935 ft | 329 kts | 242° |
| 2026-04-28 17:45 | 41.74220 | -73.52940 | 15918 ft | 329 kts | 241° |
| 2026-04-28 17:45 | 41.73138 | -73.55676 | 15932 ft | 328 kts | 242° |
| 2026-04-28 17:45 | 41.72073 | -73.58366 | 15923 ft | 328 kts | 242° |
| 2026-04-28 17:46 | 41.71002 | -73.61068 | 15928 ft | 327 kts | 241° |
| 2026-04-28 17:46 | 41.69931 | -73.63770 | 15926 ft | 327 kts | 241° |
| 2026-04-28 17:46 | 41.68864 | -73.66460 | 15915 ft | 326 kts | 240° |
| 2026-04-28 17:46 | 41.67798 | -73.69144 | 15928 ft | 325 kts | 240° |
| 2026-04-28 17:47 | 41.66729 | -73.71831 | 15932 ft | 325 kts | 240° |
| 2026-04-28 17:47 | 41.65673 | -73.74486 | 15930 ft | 325 kts | 240° |
| 2026-04-28 17:47 | 41.64606 | -73.77164 | 15928 ft | 325 kts | 240° |
| 2026-04-28 17:47 | 41.63878 | -73.78989 | 15929 ft | 325 kts | 240° |
| 2026-04-28 17:48 | 41.62449 | -73.82569 | 15928 ft | 325 kts | 240° |
| 2026-04-28 17:48 | 41.61382 | -73.85241 | 15927 ft | 325 kts | 240° |
| 2026-04-28 17:48 | 41.60317 | -73.87905 | 15930 ft | 325 kts | 240° |
| 2026-04-28 17:48 | 41.59235 | -73.90608 | 15703 ft | 328 kts | 240° |
| 2026-04-28 17:49 | 41.58164 | -73.93283 | 15207 ft | 323 kts | 240° |
| 2026-04-28 17:49 | 41.57119 | -73.95892 | 14748 ft | 318 kts | 240° |
| 2026-04-28 17:49 | 41.56092 | -73.98453 | 14411 ft | 311 kts | 240° |
| 2026-04-28 17:49 | 41.55080 | -74.00973 | 14063 ft | 305 kts | 240° |
| 2026-04-28 17:50 | 41.54075 | -74.03476 | 13712 ft | 301 kts | 240° |
| 2026-04-28 17:50 | 41.53101 | -74.05896 | 13372 ft | 297 kts | 240° |
| 2026-04-28 17:50 | 41.52110 | -74.08356 | 13029 ft | 294 kts | 240° |
| 2026-04-28 17:50 | 41.51144 | -74.10754 | 12685 ft | 292 kts | 240° |
| 2026-04-28 17:51 | 41.50171 | -74.13166 | 12340 ft | 290 kts | 240° |
| 2026-04-28 17:51 | 41.49222 | -74.15517 | 12000 ft | 289 kts | 240° |
| 2026-04-28 17:51 | 41.48269 | -74.17876 | 11658 ft | 287 kts | 240° |
| 2026-04-28 17:51 | 41.47323 | -74.20212 | 11317 ft | 286 kts | 239° |
| 2026-04-28 17:52 | 41.46379 | -74.22546 | 10973 ft | 285 kts | 240° |
| 2026-04-28 17:52 | 41.45433 | -74.24885 | 10629 ft | 284 kts | 239° |
| 2026-04-28 17:52 | 41.43573 | -74.29472 | 9966 ft | 281 kts | 240° |
| 2026-04-28 17:53 | 41.42637 | -74.31778 | 9626 ft | 280 kts | 239° |
| 2026-04-28 17:53 | 41.41716 | -74.34046 | 9255 ft | 279 kts | 240° |
| 2026-04-28 17:53 | 41.40789 | -74.36326 | 8894 ft | 279 kts | 239° |
| 2026-04-28 17:53 | 41.39859 | -74.38609 | 8522 ft | 278 kts | 239° |
| 2026-04-28 17:54 | 41.38950 | -74.40845 | 8226 ft | 275 kts | 239° |
| 2026-04-28 17:54 | 41.38034 | -74.43096 | 7927 ft | 273 kts | 239° |
| 2026-04-28 17:54 | 41.37138 | -74.45293 | 7626 ft | 267 kts | 239° |
| 2026-04-28 17:54 | 41.36269 | -74.47428 | 7325 ft | 261 kts | 239° |
| 2026-04-28 17:55 | 41.35405 | -74.49545 | 7019 ft | 256 kts | 239° |
| 2026-04-28 17:55 | 41.34557 | -74.51621 | 6719 ft | 252 kts | 238° |
| 2026-04-28 17:55 | 41.33719 | -74.53669 | 6422 ft | 249 kts | 238° |
| 2026-04-28 17:55 | 41.32894 | -74.55676 | 6123 ft | 247 kts | 238° |
| 2026-04-28 17:56 | 41.31737 | -74.57257 | 5933 ft | 235 kts | 206° |
| 2026-04-28 17:56 | 41.30179 | -74.57558 | 5913 ft | 227 kts | 172° |
| 2026-04-28 17:56 | 41.28780 | -74.56566 | 5927 ft | 228 kts | 142° |
| 2026-04-28 17:56 | 41.27697 | -74.55015 | 5709 ft | 234 kts | 133° |
| 2026-04-28 17:57 | 41.26730 | -74.53243 | 5424 ft | 237 kts | 128° |
| 2026-04-28 17:57 | 41.25841 | -74.51402 | 5129 ft | 236 kts | 126° |
| 2026-04-28 17:57 | 41.25000 | -74.49525 | 4830 ft | 236 kts | 123° |
| 2026-04-28 17:57 | 41.24188 | -74.47622 | 4530 ft | 235 kts | 122° |
| 2026-04-28 17:58 | 41.23404 | -74.45718 | 4238 ft | 234 kts | 121° |
| 2026-04-28 17:58 | 41.22640 | -74.43814 | 3938 ft | 233 kts | 121° |
| 2026-04-28 17:58 | 41.21883 | -74.41892 | 3645 ft | 232 kts | 120° |
| 2026-04-28 17:58 | 41.21141 | -74.39983 | 3351 ft | 231 kts | 120° |
| 2026-04-28 17:59 | 41.20418 | -74.38103 | 3056 ft | 230 kts | 119° |
| 2026-04-28 17:59 | 41.19687 | -74.36189 | 2822 ft | 227 kts | 119° |
| 2026-04-28 17:59 | 41.18996 | -74.34361 | 2778 ft | 216 kts | 119° |
| 2026-04-28 17:59 | 41.18332 | -74.32611 | 2769 ft | 209 kts | 120° |
| 2026-04-28 18:00 | 41.17674 | -74.30929 | 2763 ft | 204 kts | 121° |
| 2026-04-28 18:00 | 41.16967 | -74.29258 | 2633 ft | 205 kts | 123° |
| 2026-04-28 18:00 | 41.16262 | -74.27623 | 2583 ft | 203 kts | 122° |
| 2026-04-28 18:00 | 41.15559 | -74.25991 | 2592 ft | 201 kts | 123° |
| 2026-04-28 18:01 | 41.14873 | -74.24394 | 2586 ft | 200 kts | 123° |
| 2026-04-28 18:01 | 41.14189 | -74.22797 | 2580 ft | 197 kts | 122° |
| 2026-04-28 18:01 | 41.13512 | -74.21216 | 2583 ft | 196 kts | 122° |
| 2026-04-28 18:01 | 41.12843 | -74.19657 | 2584 ft | 194 kts | 122° |
| 2026-04-28 18:02 | 41.12178 | -74.18099 | 2589 ft | 193 kts | 122° |
| 2026-04-28 18:02 | 41.11517 | -74.16550 | 2592 ft | 192 kts | 122° |
| 2026-04-28 18:02 | 41.10850 | -74.14990 | 2588 ft | 192 kts | 122° |
| 2026-04-28 18:02 | 41.10170 | -74.13470 | 2588 ft | 191 kts | 129° |
| 2026-04-28 18:03 | 41.09274 | -74.12197 | 2597 ft | 189 kts | 139° |
| 2026-04-28 18:03 | 41.08300 | -74.11009 | 2593 ft | 189 kts | 140° |
| 2026-04-28 18:03 | 41.07320 | -74.09856 | 2594 ft | 189 kts | 140° |
| 2026-04-28 18:03 | 41.06329 | -74.08695 | 2594 ft | 189 kts | 140° |
| 2026-04-28 18:04 | 41.05315 | -74.07507 | 2383 ft | 200 kts | 140° |
| 2026-04-28 18:04 | 41.04258 | -74.06263 | 2162 ft | 208 kts | 140° |
| 2026-04-28 18:04 | 41.03103 | -74.05092 | 2083 ft | 206 kts | 157° |
| 2026-04-28 18:04 | 41.01709 | -74.04801 | 1939 ft | 197 kts | 177° |
| 2026-04-28 18:05 | 41.00380 | -74.04809 | 1655 ft | 185 kts | 181° |
| 2026-04-28 18:05 | 40.99541 | -74.04853 | 1525 ft | 177 kts | 181° |
| 2026-04-28 18:05 | 40.97985 | -74.04964 | 1475 ft | 157 kts | 182° |
| 2026-04-28 18:05 | 40.96934 | -74.05042 | 1472 ft | 145 kts | 182° |
| 2026-04-28 18:06 | 40.95954 | -74.05115 | 1504 ft | 132 kts | 182° |
| 2026-04-28 18:06 | 40.95086 | -74.05182 | 1495 ft | 123 kts | 182° |
| 2026-04-28 18:06 | 40.94248 | -74.05244 | 1477 ft | 116 kts | 182° |
| 2026-04-28 18:06 | 40.93495 | -74.05298 | 1524 ft | 101 kts | 184° |
| 2026-04-28 18:07 | 40.92777 | -74.05386 | 1424 ft | 104 kts | 187° |
| 2026-04-28 18:07 | 40.92006 | -74.05452 | 1194 ft | 116 kts | 183° |
| 2026-04-28 18:07 | 40.91188 | -74.05508 | 1001 ft | 115 kts | 184° |
| 2026-04-28 18:07 | 40.90400 | -74.05598 | 860 ft | 114 kts | 186° |
| 2026-04-28 18:08 | 40.89600 | -74.05632 | 699 ft | 114 kts | 181° |
| 2026-04-28 18:08 | 40.88797 | -74.05703 | 484 ft | 117 kts | 186° |
| 2026-04-28 18:08 | 40.87993 | -74.05746 | 351 ft | 113 kts | 183° |
| 2026-04-28 18:08 | 40.87224 | -74.05790 | 242 ft | 108 kts | 186° |
| 2026-04-28 18:09 | 40.86489 | -74.05846 | 163 ft | 102 kts | 183° |
| 2026-04-28 18:09 | 40.85796 | -74.05898 | 44 ft | 97 kts | 184° |
| 2026-04-28 18:09 | 40.85177 | -74.05939 | 8 ft | 75 kts | 184° |
| 2026-04-28 18:09 | 40.84810 | -74.05973 | 8 ft | 28 kts | 199° |
| 2026-04-28 18:10 | 40.84694 | -74.06100 | 8 ft | 18 kts | 251° |
| 2026-04-28 18:10 | 40.84737 | -74.06234 | 8 ft | 16 kts | 309° |
| 2026-04-28 18:10 | 40.84803 | -74.06349 | 8 ft | 14 kts | 305° |
| 2026-04-28 18:10 | 40.84861 | -74.06454 | 8 ft | 13 kts | 309° |
| 2026-04-28 18:11 | 40.84903 | -74.06521 | 8 ft | 0 kts | 308° |
| 2026-04-28 18:11 | 40.84908 | -74.06530 | 8 ft | 3 kts | 308° |
| 2026-04-28 18:11 | 40.84931 | -74.06570 | 8 ft | 7 kts | 305° |
| 2026-04-28 18:12 | 40.84971 | -74.06641 | 8 ft | 10 kts | 307° |
| 2026-04-28 18:12 | 40.85014 | -74.06714 | 8 ft | 9 kts | 307° |
| 2026-04-28 18:12 | 40.85035 | -74.06784 | 8 ft | 8 kts | 232° |
| 2026-04-28 18:12 | 40.85009 | -74.06846 | 8 ft | 6 kts | 227° |
| 2026-04-28 18:13 | 40.85028 | -74.06892 | 8 ft | 5 kts | 326° |
| 2026-04-28 18:13 | 40.85044 | -74.06884 | 8 ft | 0 kts | 51° |